Reiles Acres, North Dakota
Current Conditions -  °F | °C
As of 11:28 AM on Thursday 30 Oct 2014 (Local Time) from KFAR Reporting Station
Overcast Overcast  
Wind Chill: 33°   Ceiling: 1800
Heat Index: 42°   Visibility: 10mi
Dew Point: 34°   Wind: 20mph
Humidity: 73%   Direction: 360°N
Pressure: 30.24"   Gusts: 29mph
Location:  46.9259°N, 96.8507°W
Report Text: KFAR 301628Z 36017G25KT 10SM BKN018 BKN030 OVC110 06/01 A3024 RMK AO2 T00560011
Loading
Personal Weather Stations






























Interactive Weather Map New forecast layout! Learn more

10-Day Weather Forecast

Advertisements
Track Severe Weather on mobile